sensor_id;sensor_type;location;lat;lon;timestamp;temperature;humidity
14142;DHT22;7151;52.246;4.820;2023-06-22T00:01:52;25.30;57.70
14142;DHT22;7151;52.246;4.820;2023-06-22T00:04:18;25.20;57.80
14142;DHT22;7151;52.246;4.820;2023-06-22T00:06:43;25.20;57.80
14142;DHT22;7151;52.246;4.820;2023-06-22T00:09:09;25.20;57.90
14142;DHT22;7151;52.246;4.820;2023-06-22T00:11:36;25.20;58.00
14142;DHT22;7151;52.246;4.820;2023-06-22T00:14:02;25.20;58.10
14142;DHT22;7151;52.246;4.820;2023-06-22T00:16:28;25.10;58.10
14142;DHT22;7151;52.246;4.820;2023-06-22T00:18:53;25.10;58.20
14142;DHT22;7151;52.246;4.820;2023-06-22T00:21:19;25.00;58.20
14142;DHT22;7151;52.246;4.820;2023-06-22T00:23:47;25.00;58.30
14142;DHT22;7151;52.246;4.820;2023-06-22T00:26:13;25.00;58.40
14142;DHT22;7151;52.246;4.820;2023-06-22T00:28:39;25.00;58.50
14142;DHT22;7151;52.246;4.820;2023-06-22T00:31:05;24.90;58.60
14142;DHT22;7151;52.246;4.820;2023-06-22T00:33:30;24.90;58.70
14142;DHT22;7151;52.246;4.820;2023-06-22T00:35:56;24.90;58.80
14142;DHT22;7151;52.246;4.820;2023-06-22T00:38:22;24.80;58.90
14142;DHT22;7151;52.246;4.820;2023-06-22T00:40:48;24.80;59.00
14142;DHT22;7151;52.246;4.820;2023-06-22T00:43:13;24.80;59.10
14142;DHT22;7151;52.246;4.820;2023-06-22T00:45:39;24.70;59.20
14142;DHT22;7151;52.246;4.820;2023-06-22T00:48:06;24.70;59.30
14142;DHT22;7151;52.246;4.820;2023-06-22T00:50:33;24.70;59.40
14142;DHT22;7151;52.246;4.820;2023-06-22T00:53:09;24.60;59.40
14142;DHT22;7151;52.246;4.820;2023-06-22T00:55:41;24.60;59.70
14142;DHT22;7151;52.246;4.820;2023-06-22T00:58:09;24.60;60.30
14142;DHT22;7151;52.246;4.820;2023-06-22T01:00:36;24.60;59.80
14142;DHT22;7151;52.246;4.820;2023-06-22T01:03:03;24.60;59.90
14142;DHT22;7151;52.246;4.820;2023-06-22T01:05:29;24.50;60.00
14142;DHT22;7151;52.246;4.820;2023-06-22T01:11:07;24.50;60.30
14142;DHT22;7151;52.246;4.820;2023-06-22T01:16:35;24.40;60.40
14142;DHT22;7151;52.246;4.820;2023-06-22T01:21:51;24.40;60.70
14142;DHT22;7151;52.246;4.820;2023-06-22T01:24:32;24.30;60.60
14142;DHT22;7151;52.246;4.820;2023-06-22T01:27:23;24.30;60.90
14142;DHT22;7151;52.246;4.820;2023-06-22T01:29:56;24.30;61.10
14142;DHT22;7151;52.246;4.820;2023-06-22T01:32:32;24.20;61.00
14142;DHT22;7151;52.246;4.820;2023-06-22T01:35:00;24.20;61.10
14142;DHT22;7151;52.246;4.820;2023-06-22T01:37:27;24.20;61.20
14142;DHT22;7151;52.246;4.820;2023-06-22T01:39:54;24.20;61.30
14142;DHT22;7151;52.246;4.820;2023-06-22T01:42:21;24.20;61.50
14142;DHT22;7151;52.246;4.820;2023-06-22T01:44:47;24.20;61.60
14142;DHT22;7151;52.246;4.820;2023-06-22T01:47:13;24.10;61.70
14142;DHT22;7151;52.246;4.820;2023-06-22T01:49:40;24.10;61.80
14142;DHT22;7151;52.246;4.820;2023-06-22T01:52:07;24.10;62.00
14142;DHT22;7151;52.246;4.820;2023-06-22T01:54:32;24.10;62.10
14142;DHT22;7151;52.246;4.820;2023-06-22T01:56:58;24.00;62.10
14142;DHT22;7151;52.246;4.820;2023-06-22T01:59:43;24.00;62.30
14142;DHT22;7151;52.246;4.820;2023-06-22T02:02:14;24.00;62.50
14142;DHT22;7151;52.246;4.820;2023-06-22T02:04:51;24.00;62.30
14142;DHT22;7151;52.246;4.820;2023-06-22T02:07:20;23.90;62.50
14142;DHT22;7151;52.246;4.820;2023-06-22T02:09:50;23.90;62.40
14142;DHT22;7151;52.246;4.820;2023-06-22T02:12:18;23.90;62.50
14142;DHT22;7151;52.246;4.820;2023-06-22T02:14:46;23.90;62.60
14142;DHT22;7151;52.246;4.820;2023-06-22T02:17:13;23.90;62.70
14142;DHT22;7151;52.246;4.820;2023-06-22T02:19:41;23.80;62.80
14142;DHT22;7151;52.246;4.820;2023-06-22T02:22:07;23.80;62.90
14142;DHT22;7151;52.246;4.820;2023-06-22T02:24:32;23.80;63.10
14142;DHT22;7151;52.246;4.820;2023-06-22T02:26:59;23.80;63.10
14142;DHT22;7151;52.246;4.820;2023-06-22T02:29:25;23.80;63.20
14142;DHT22;7151;52.246;4.820;2023-06-22T02:31:52;23.80;63.40
14142;DHT22;7151;52.246;4.820;2023-06-22T02:34:17;23.70;63.40
14142;DHT22;7151;52.246;4.820;2023-06-22T02:36:47;23.70;63.40
14142;DHT22;7151;52.246;4.820;2023-06-22T02:39:21;23.70;63.60
14142;DHT22;7151;52.246;4.820;2023-06-22T02:41:54;23.60;63.60
14142;DHT22;7151;52.246;4.820;2023-06-22T02:44:20;23.70;63.70
14142;DHT22;7151;52.246;4.820;2023-06-22T02:46:47;23.60;63.70
14142;DHT22;7151;52.246;4.820;2023-06-22T02:49:13;23.60;63.80
14142;DHT22;7151;52.246;4.820;2023-06-22T02:51:41;23.60;63.90
14142;DHT22;7151;52.246;4.820;2023-06-22T02:54:07;23.60;64.00
14142;DHT22;7151;52.246;4.820;2023-06-22T02:56:33;23.50;64.00
14142;DHT22;7151;52.246;4.820;2023-06-22T02:58:58;23.50;64.20
14142;DHT22;7151;52.246;4.820;2023-06-22T03:01:28;23.50;64.20
14142;DHT22;7151;52.246;4.820;2023-06-22T03:03:55;23.50;64.40
14142;DHT22;7151;52.246;4.820;2023-06-22T03:06:21;23.50;64.50
14142;DHT22;7151;52.246;4.820;2023-06-22T03:09:02;23.50;64.60
14142;DHT22;7151;52.246;4.820;2023-06-22T03:11:29;23.50;64.70
14142;DHT22;7151;52.246;4.820;2023-06-22T03:13:55;23.40;64.80
14142;DHT22;7151;52.246;4.820;2023-06-22T03:16:21;23.40;64.80
14142;DHT22;7151;52.246;4.820;2023-06-22T03:18:46;23.40;65.00
14142;DHT22;7151;52.246;4.820;2023-06-22T03:21:12;23.40;65.00
14142;DHT22;7151;52.246;4.820;2023-06-22T03:23:37;23.40;65.20
14142;DHT22;7151;52.246;4.820;2023-06-22T03:26:03;23.30;65.10
14142;DHT22;7151;52.246;4.820;2023-06-22T03:28:29;23.30;65.20
14142;DHT22;7151;52.246;4.820;2023-06-22T03:30:57;23.30;65.40
14142;DHT22;7151;52.246;4.820;2023-06-22T03:33:23;23.30;65.60
14142;DHT22;7151;52.246;4.820;2023-06-22T03:35:48;23.20;65.60
14142;DHT22;7151;52.246;4.820;2023-06-22T03:38:15;23.30;65.70
14142;DHT22;7151;52.246;4.820;2023-06-22T03:40:41;23.20;65.70
14142;DHT22;7151;52.246;4.820;2023-06-22T03:43:07;23.20;65.80
14142;DHT22;7151;52.246;4.820;2023-06-22T03:45:32;23.20;65.80
14142;DHT22;7151;52.246;4.820;2023-06-22T03:47:58;23.20;65.90
14142;DHT22;7151;52.246;4.820;2023-06-22T03:50:23;23.10;65.90
14142;DHT22;7151;52.246;4.820;2023-06-22T03:52:49;23.10;66.00
14142;DHT22;7151;52.246;4.820;2023-06-22T03:55:17;23.10;66.00
14142;DHT22;7151;52.246;4.820;2023-06-22T03:57:42;23.10;66.20
14142;DHT22;7151;52.246;4.820;2023-06-22T04:00:08;23.10;66.30
14142;DHT22;7151;52.246;4.820;2023-06-22T04:02:35;23.10;66.30
14142;DHT22;7151;52.246;4.820;2023-06-22T04:05:01;23.00;66.30
14142;DHT22;7151;52.246;4.820;2023-06-22T04:07:26;23.00;66.50
14142;DHT22;7151;52.246;4.820;2023-06-22T04:09:52;23.00;66.60
14142;DHT22;7151;52.246;4.820;2023-06-22T04:12:17;23.00;66.60
14142;DHT22;7151;52.246;4.820;2023-06-22T04:14:43;23.00;66.80
14142;DHT22;7151;52.246;4.820;2023-06-22T04:17:08;23.00;66.90
14142;DHT22;7151;52.246;4.820;2023-06-22T04:19:34;23.00;67.00
14142;DHT22;7151;52.246;4.820;2023-06-22T04:22:00;23.00;67.10
14142;DHT22;7151;52.246;4.820;2023-06-22T04:24:25;23.00;67.30
14142;DHT22;7151;52.246;4.820;2023-06-22T04:26:51;23.00;67.50
14142;DHT22;7151;52.246;4.820;2023-06-22T04:29:20;23.00;67.60
14142;DHT22;7151;52.246;4.820;2023-06-22T04:31:45;22.90;67.70
14142;DHT22;7151;52.246;4.820;2023-06-22T04:34:16;23.00;68.00
14142;DHT22;7151;52.246;4.820;2023-06-22T04:36:42;22.90;68.00
14142;DHT22;7151;52.246;4.820;2023-06-22T04:39:09;23.00;68.30
14142;DHT22;7151;52.246;4.820;2023-06-22T04:41:36;22.90;68.40
14142;DHT22;7151;52.246;4.820;2023-06-22T04:44:15;23.00;68.70
14142;DHT22;7151;52.246;4.820;2023-06-22T04:46:58;23.00;69.00
14142;DHT22;7151;52.246;4.820;2023-06-22T04:49:29;23.00;69.10
14142;DHT22;7151;52.246;4.820;2023-06-22T04:51:59;23.00;69.30
14142;DHT22;7151;52.246;4.820;2023-06-22T04:54:25;23.00;69.60
14142;DHT22;7151;52.246;4.820;2023-06-22T04:56:51;23.10;69.90
14142;DHT22;7151;52.246;4.820;2023-06-22T04:59:26;23.10;70.20
14142;DHT22;7151;52.246;4.820;2023-06-22T05:01:57;23.10;70.60
14142;DHT22;7151;52.246;4.820;2023-06-22T05:04:24;23.10;70.70
14142;DHT22;7151;52.246;4.820;2023-06-22T05:06:51;23.20;71.00
14142;DHT22;7151;52.246;4.820;2023-06-22T05:09:17;23.20;71.30
14142;DHT22;7151;52.246;4.820;2023-06-22T05:11:43;23.30;71.50
14142;DHT22;7151;52.246;4.820;2023-06-22T05:14:09;23.30;71.60
14142;DHT22;7151;52.246;4.820;2023-06-22T05:16:35;23.40;71.90
14142;DHT22;7151;52.246;4.820;2023-06-22T05:19:01;23.40;71.90
14142;DHT22;7151;52.246;4.820;2023-06-22T05:21:30;23.40;71.90
14142;DHT22;7151;52.246;4.820;2023-06-22T05:23:56;23.50;72.10
14142;DHT22;7151;52.246;4.820;2023-06-22T05:26:26;23.50;72.20
14142;DHT22;7151;52.246;4.820;2023-06-22T05:28:52;23.60;72.30
14142;DHT22;7151;52.246;4.820;2023-06-22T05:31:18;23.60;72.40
14142;DHT22;7151;52.246;4.820;2023-06-22T05:33:46;23.60;72.40
14142;DHT22;7151;52.246;4.820;2023-06-22T05:36:12;23.70;72.60
14142;DHT22;7151;52.246;4.820;2023-06-22T05:38:40;23.70;72.80
14142;DHT22;7151;52.246;4.820;2023-06-22T05:41:05;23.80;72.90
14142;DHT22;7151;52.246;4.820;2023-06-22T05:43:31;23.70;72.90
14142;DHT22;7151;52.246;4.820;2023-06-22T05:45:57;23.80;72.80
14142;DHT22;7151;52.246;4.820;2023-06-22T05:48:23;23.80;72.70
14142;DHT22;7151;52.246;4.820;2023-06-22T05:50:49;23.90;72.80
14142;DHT22;7151;52.246;4.820;2023-06-22T05:53:15;23.90;72.80
14142;DHT22;7151;52.246;4.820;2023-06-22T05:55:40;23.90;72.70
14142;DHT22;7151;52.246;4.820;2023-06-22T05:58:06;24.00;72.50
14142;DHT22;7151;52.246;4.820;2023-06-22T06:00:32;24.00;72.50
14142;DHT22;7151;52.246;4.820;2023-06-22T06:02:58;24.00;72.60
14142;DHT22;7151;52.246;4.820;2023-06-22T06:05:32;24.00;72.50
14142;DHT22;7151;52.246;4.820;2023-06-22T06:07:58;24.10;72.50
14142;DHT22;7151;52.246;4.820;2023-06-22T06:10:27;24.10;72.50
14142;DHT22;7151;52.246;4.820;2023-06-22T06:12:55;24.10;72.60
14142;DHT22;7151;52.246;4.820;2023-06-22T06:15:21;24.10;72.50
14142;DHT22;7151;52.246;4.820;2023-06-22T06:20:13;24.10;72.40
14142;DHT22;7151;52.246;4.820;2023-06-22T06:22:38;24.20;72.40
14142;DHT22;7151;52.246;4.820;2023-06-22T06:25:05;24.20;72.30
14142;DHT22;7151;52.246;4.820;2023-06-22T06:27:30;24.20;72.20
14142;DHT22;7151;52.246;4.820;2023-06-22T06:29:56;24.20;72.10
14142;DHT22;7151;52.246;4.820;2023-06-22T06:32:22;24.30;72.10
14142;DHT22;7151;52.246;4.820;2023-06-22T06:34:48;24.30;72.00
14142;DHT22;7151;52.246;4.820;2023-06-22T06:37:13;24.30;71.70
14142;DHT22;7151;52.246;4.820;2023-06-22T06:39:39;24.40;71.80
14142;DHT22;7151;52.246;4.820;2023-06-22T06:42:05;24.40;71.60
14142;DHT22;7151;52.246;4.820;2023-06-22T06:44:31;24.40;71.60
14142;DHT22;7151;52.246;4.820;2023-06-22T06:46:56;24.40;71.60
14142;DHT22;7151;52.246;4.820;2023-06-22T06:49:22;24.40;71.50
14142;DHT22;7151;52.246;4.820;2023-06-22T06:51:47;24.50;71.40
14142;DHT22;7151;52.246;4.820;2023-06-22T06:54:13;24.50;71.20
14142;DHT22;7151;52.246;4.820;2023-06-22T06:56:38;24.50;70.90
14142;DHT22;7151;52.246;4.820;2023-06-22T06:59:04;24.60;70.90
14142;DHT22;7151;52.246;4.820;2023-06-22T07:01:29;24.60;70.70
14142;DHT22;7151;52.246;4.820;2023-06-22T07:03:59;24.60;71.10
14142;DHT22;7151;52.246;4.820;2023-06-22T07:06:25;24.70;70.30
14142;DHT22;7151;52.246;4.820;2023-06-22T07:08:55;24.70;70.10
14142;DHT22;7151;52.246;4.820;2023-06-22T07:11:20;24.70;70.00
14142;DHT22;7151;52.246;4.820;2023-06-22T07:13:46;24.70;69.70
14142;DHT22;7151;52.246;4.820;2023-06-22T07:16:11;24.80;69.70
14142;DHT22;7151;52.246;4.820;2023-06-22T07:18:39;24.80;69.80
14142;DHT22;7151;52.246;4.820;2023-06-22T07:21:05;24.80;69.60
14142;DHT22;7151;52.246;4.820;2023-06-22T07:23:32;24.80;69.60
14142;DHT22;7151;52.246;4.820;2023-06-22T07:25:58;24.80;69.60
14142;DHT22;7151;52.246;4.820;2023-06-22T07:28:27;24.90;69.60
14142;DHT22;7151;52.246;4.820;2023-06-22T07:30:53;24.90;69.70
14142;DHT22;7151;52.246;4.820;2023-06-22T07:33:18;24.90;69.80
14142;DHT22;7151;52.246;4.820;2023-06-22T07:35:45;25.00;70.00
14142;DHT22;7151;52.246;4.820;2023-06-22T07:38:12;25.00;70.30
14142;DHT22;7151;52.246;4.820;2023-06-22T07:40:37;25.10;70.40
14142;DHT22;7151;52.246;4.820;2023-06-22T07:43:03;25.10;70.50
14142;DHT22;7151;52.246;4.820;2023-06-22T07:45:29;25.10;70.40
14142;DHT22;7151;52.246;4.820;2023-06-22T07:47:55;25.20;70.50
14142;DHT22;7151;52.246;4.820;2023-06-22T07:50:20;25.20;70.30
14142;DHT22;7151;52.246;4.820;2023-06-22T07:52:46;25.30;70.30
14142;DHT22;7151;52.246;4.820;2023-06-22T07:55:13;25.30;70.20
14142;DHT22;7151;52.246;4.820;2023-06-22T07:57:38;25.30;70.00
14142;DHT22;7151;52.246;4.820;2023-06-22T08:00:05;25.30;70.00
14142;DHT22;7151;52.246;4.820;2023-06-22T08:02:43;25.40;70.10
14142;DHT22;7151;52.246;4.820;2023-06-22T08:05:10;25.40;70.10
14142;DHT22;7151;52.246;4.820;2023-06-22T08:07:36;25.40;70.80
14142;DHT22;7151;52.246;4.820;2023-06-22T08:10:05;25.50;70.10
14142;DHT22;7151;52.246;4.820;2023-06-22T08:12:31;25.50;70.10
14142;DHT22;7151;52.246;4.820;2023-06-22T08:14:57;25.50;70.00
14142;DHT22;7151;52.246;4.820;2023-06-22T08:17:24;25.60;70.10
14142;DHT22;7151;52.246;4.820;2023-06-22T08:19:49;25.60;70.10
14142;DHT22;7151;52.246;4.820;2023-06-22T08:22:16;25.60;70.30
14142;DHT22;7151;52.246;4.820;2023-06-22T08:24:42;25.70;70.30
14142;DHT22;7151;52.246;4.820;2023-06-22T08:27:08;25.80;70.30
14142;DHT22;7151;52.246;4.820;2023-06-22T08:29:41;25.80;70.30
14142;DHT22;7151;52.246;4.820;2023-06-22T08:32:11;25.90;70.30
14142;DHT22;7151;52.246;4.820;2023-06-22T08:34:37;25.90;70.00
14142;DHT22;7151;52.246;4.820;2023-06-22T08:37:08;26.00;69.90
14142;DHT22;7151;52.246;4.820;2023-06-22T08:39:34;26.00;69.80
14142;DHT22;7151;52.246;4.820;2023-06-22T08:41:59;26.10;69.60
14142;DHT22;7151;52.246;4.820;2023-06-22T08:44:25;26.10;69.50
14142;DHT22;7151;52.246;4.820;2023-06-22T08:46:51;26.20;69.60
14142;DHT22;7151;52.246;4.820;2023-06-22T08:49:16;26.20;69.50
14142;DHT22;7151;52.246;4.820;2023-06-22T08:51:42;26.30;69.30
14142;DHT22;7151;52.246;4.820;2023-06-22T08:54:09;26.30;69.30
14142;DHT22;7151;52.246;4.820;2023-06-22T08:56:35;26.40;69.40
14142;DHT22;7151;52.246;4.820;2023-06-22T08:59:01;26.40;69.20
14142;DHT22;7151;52.246;4.820;2023-06-22T09:01:27;26.40;69.20
14142;DHT22;7151;52.246;4.820;2023-06-22T09:03:52;26.50;69.30
14142;DHT22;7151;52.246;4.820;2023-06-22T09:06:23;26.50;69.20
14142;DHT22;7151;52.246;4.820;2023-06-22T09:08:48;26.60;69.20
14142;DHT22;7151;52.246;4.820;2023-06-22T09:11:14;26.60;69.00
14142;DHT22;7151;52.246;4.820;2023-06-22T09:13:40;26.70;69.10
14142;DHT22;7151;52.246;4.820;2023-06-22T09:16:05;26.70;69.00
14142;DHT22;7151;52.246;4.820;2023-06-22T09:18:32;26.80;69.10
14142;DHT22;7151;52.246;4.820;2023-06-22T09:20:57;26.80;68.70
14142;DHT22;7151;52.246;4.820;2023-06-22T09:23:23;26.90;68.60
14142;DHT22;7151;52.246;4.820;2023-06-22T09:25:48;26.90;68.60
14142;DHT22;7151;52.246;4.820;2023-06-22T09:28:14;26.90;68.70
14142;DHT22;7151;52.246;4.820;2023-06-22T09:30:40;27.00;68.80
14142;DHT22;7151;52.246;4.820;2023-06-22T09:33:06;27.10;68.70
14142;DHT22;7151;52.246;4.820;2023-06-22T09:35:31;27.10;68.60
14142;DHT22;7151;52.246;4.820;2023-06-22T09:37:57;27.20;68.60
14142;DHT22;7151;52.246;4.820;2023-06-22T09:40:23;27.30;68.60
14142;DHT22;7151;52.246;4.820;2023-06-22T09:42:48;27.30;68.50
14142;DHT22;7151;52.246;4.820;2023-06-22T09:45:14;27.30;68.40
14142;DHT22;7151;52.246;4.820;2023-06-22T09:47:39;27.40;68.10
14142;DHT22;7151;52.246;4.820;2023-06-22T09:50:05;27.40;67.80
14142;DHT22;7151;52.246;4.820;2023-06-22T09:52:31;27.50;67.50
14142;DHT22;7151;52.246;4.820;2023-06-22T09:54:57;27.50;67.40
14142;DHT22;7151;52.246;4.820;2023-06-22T09:57:22;27.50;67.50
14142;DHT22;7151;52.246;4.820;2023-06-22T09:59:48;27.60;67.70
14142;DHT22;7151;52.246;4.820;2023-06-22T10:02:14;27.60;68.00
14142;DHT22;7151;52.246;4.820;2023-06-22T10:04:39;27.60;67.80
14142;DHT22;7151;52.246;4.820;2023-06-22T10:07:05;27.70;67.80
14142;DHT22;7151;52.246;4.820;2023-06-22T10:09:31;27.70;67.90
14142;DHT22;7151;52.246;4.820;2023-06-22T10:11:57;27.70;67.80
14142;DHT22;7151;52.246;4.820;2023-06-22T10:14:23;27.80;67.60
14142;DHT22;7151;52.246;4.820;2023-06-22T10:16:50;27.80;67.50
14142;DHT22;7151;52.246;4.820;2023-06-22T10:19:16;27.80;67.40
14142;DHT22;7151;52.246;4.820;2023-06-22T10:21:41;27.80;67.30
14142;DHT22;7151;52.246;4.820;2023-06-22T10:24:07;27.80;67.20
14142;DHT22;7151;52.246;4.820;2023-06-22T10:26:34;27.90;67.10
14142;DHT22;7151;52.246;4.820;2023-06-22T10:29:00;27.90;67.00
14142;DHT22;7151;52.246;4.820;2023-06-22T10:31:26;27.90;66.90
14142;DHT22;7151;52.246;4.820;2023-06-22T10:33:53;27.90;66.80
14142;DHT22;7151;52.246;4.820;2023-06-22T10:36:19;27.90;66.60
14142;DHT22;7151;52.246;4.820;2023-06-22T10:38:44;27.90;66.50
14142;DHT22;7151;52.246;4.820;2023-06-22T10:41:10;27.90;66.60
14142;DHT22;7151;52.246;4.820;2023-06-22T10:43:36;27.90;66.70
14142;DHT22;7151;52.246;4.820;2023-06-22T10:46:01;27.90;66.90
14142;DHT22;7151;52.246;4.820;2023-06-22T10:48:27;27.90;66.90
14142;DHT22;7151;52.246;4.820;2023-06-22T10:50:53;27.90;66.80
14142;DHT22;7151;52.246;4.820;2023-06-22T10:53:20;27.90;66.80
14142;DHT22;7151;52.246;4.820;2023-06-22T10:55:45;27.90;66.80
14142;DHT22;7151;52.246;4.820;2023-06-22T10:58:11;27.90;66.90
14142;DHT22;7151;52.246;4.820;2023-06-22T11:00:36;27.90;66.60
14142;DHT22;7151;52.246;4.820;2023-06-22T11:03:02;27.90;66.80
14142;DHT22;7151;52.246;4.820;2023-06-22T11:05:27;27.90;66.90
14142;DHT22;7151;52.246;4.820;2023-06-22T11:07:53;27.90;67.00
14142;DHT22;7151;52.246;4.820;2023-06-22T11:10:19;27.90;67.10
14142;DHT22;7151;52.246;4.820;2023-06-22T11:12:44;27.90;67.20
14142;DHT22;7151;52.246;4.820;2023-06-22T11:15:10;27.90;67.20
14142;DHT22;7151;52.246;4.820;2023-06-22T11:17:36;27.90;67.10
14142;DHT22;7151;52.246;4.820;2023-06-22T11:20:02;27.90;66.90
14142;DHT22;7151;52.246;4.820;2023-06-22T11:22:35;27.90;66.70
14142;DHT22;7151;52.246;4.820;2023-06-22T11:25:00;27.90;66.70
14142;DHT22;7151;52.246;4.820;2023-06-22T11:27:26;27.90;66.60
14142;DHT22;7151;52.246;4.820;2023-06-22T11:29:52;27.90;66.60
14142;DHT22;7151;52.246;4.820;2023-06-22T11:32:18;27.90;66.70
14142;DHT22;7151;52.246;4.820;2023-06-22T11:34:44;27.90;66.60
14142;DHT22;7151;52.246;4.820;2023-06-22T11:37:09;27.90;66.80
14142;DHT22;7151;52.246;4.820;2023-06-22T11:39:35;27.90;66.80
14142;DHT22;7151;52.246;4.820;2023-06-22T11:42:01;27.90;66.90
14142;DHT22;7151;52.246;4.820;2023-06-22T11:44:26;27.90;67.80
14142;DHT22;7151;52.246;4.820;2023-06-22T11:46:52;27.90;67.00
14142;DHT22;7151;52.246;4.820;2023-06-22T11:49:17;27.90;66.90
14142;DHT22;7151;52.246;4.820;2023-06-22T11:51:43;27.90;66.80
14142;DHT22;7151;52.246;4.820;2023-06-22T11:54:08;27.80;66.70
14142;DHT22;7151;52.246;4.820;2023-06-22T11:56:34;27.80;66.80
14142;DHT22;7151;52.246;4.820;2023-06-22T11:59:00;27.80;66.90
14142;DHT22;7151;52.246;4.820;2023-06-22T12:01:25;27.80;67.00
14142;DHT22;7151;52.246;4.820;2023-06-22T12:03:51;27.80;67.10
14142;DHT22;7151;52.246;4.820;2023-06-22T12:06:17;27.90;67.20
14142;DHT22;7151;52.246;4.820;2023-06-22T12:08:42;27.90;67.00
14142;DHT22;7151;52.246;4.820;2023-06-22T12:11:08;27.90;66.80
14142;DHT22;7151;52.246;4.820;2023-06-22T12:13:33;27.90;66.80
14142;DHT22;7151;52.246;4.820;2023-06-22T12:15:59;27.90;66.70
14142;DHT22;7151;52.246;4.820;2023-06-22T12:18:25;27.90;66.80
14142;DHT22;7151;52.246;4.820;2023-06-22T12:20:50;27.90;66.80
14142;DHT22;7151;52.246;4.820;2023-06-22T12:23:16;27.90;66.70
14142;DHT22;7151;52.246;4.820;2023-06-22T12:25:41;27.90;66.80
14142;DHT22;7151;52.246;4.820;2023-06-22T12:28:07;27.90;66.60
14142;DHT22;7151;52.246;4.820;2023-06-22T12:30:33;27.90;66.50
14142;DHT22;7151;52.246;4.820;2023-06-22T12:32:59;27.90;66.50
14142;DHT22;7151;52.246;4.820;2023-06-22T12:35:24;27.90;66.60
14142;DHT22;7151;52.246;4.820;2023-06-22T12:37:50;27.90;66.50
14142;DHT22;7151;52.246;4.820;2023-06-22T12:40:15;27.90;66.40
14142;DHT22;7151;52.246;4.820;2023-06-22T12:42:41;27.90;66.20
14142;DHT22;7151;52.246;4.820;2023-06-22T12:45:08;27.90;66.20
14142;DHT22;7151;52.246;4.820;2023-06-22T12:47:33;27.80;66.20
14142;DHT22;7151;52.246;4.820;2023-06-22T12:49:59;27.80;66.30
14142;DHT22;7151;52.246;4.820;2023-06-22T12:52:25;27.80;66.20
14142;DHT22;7151;52.246;4.820;2023-06-22T12:54:50;27.80;66.10
14142;DHT22;7151;52.246;4.820;2023-06-22T12:57:17;27.80;66.00
14142;DHT22;7151;52.246;4.820;2023-06-22T12:59:44;27.80;65.90
14142;DHT22;7151;52.246;4.820;2023-06-22T13:02:10;27.80;65.80
14142;DHT22;7151;52.246;4.820;2023-06-22T13:04:36;27.80;65.70
14142;DHT22;7151;52.246;4.820;2023-06-22T13:07:01;27.80;65.60
14142;DHT22;7151;52.246;4.820;2023-06-22T13:09:27;27.80;65.60
14142;DHT22;7151;52.246;4.820;2023-06-22T13:11:53;27.80;65.60
14142;DHT22;7151;52.246;4.820;2023-06-22T13:14:19;27.80;65.50
14142;DHT22;7151;52.246;4.820;2023-06-22T13:16:44;27.80;65.30
14142;DHT22;7151;52.246;4.820;2023-06-22T13:19:10;27.80;65.20
14142;DHT22;7151;52.246;4.820;2023-06-22T13:21:35;27.80;65.00
14142;DHT22;7151;52.246;4.820;2023-06-22T13:24:01;27.80;65.00
14142;DHT22;7151;52.246;4.820;2023-06-22T13:26:27;27.80;65.20
14142;DHT22;7151;52.246;4.820;2023-06-22T13:28:54;27.80;65.10
14142;DHT22;7151;52.246;4.820;2023-06-22T13:31:19;27.80;64.90
14142;DHT22;7151;52.246;4.820;2023-06-22T13:33:45;27.80;64.70
14142;DHT22;7151;52.246;4.820;2023-06-22T13:36:13;27.80;64.60
14142;DHT22;7151;52.246;4.820;2023-06-22T13:38:38;27.80;64.40
14142;DHT22;7151;52.246;4.820;2023-06-22T13:41:05;27.80;64.30
14142;DHT22;7151;52.246;4.820;2023-06-22T13:43:31;27.80;64.90
14142;DHT22;7151;52.246;4.820;2023-06-22T13:45:57;27.80;64.00
14142;DHT22;7151;52.246;4.820;2023-06-22T13:48:23;27.80;64.00
14142;DHT22;7151;52.246;4.820;2023-06-22T13:50:51;27.80;63.90
14142;DHT22;7151;52.246;4.820;2023-06-22T13:53:17;27.80;63.80
14142;DHT22;7151;52.246;4.820;2023-06-22T13:55:42;27.80;63.60
14142;DHT22;7151;52.246;4.820;2023-06-22T13:58:08;27.80;63.50
14142;DHT22;7151;52.246;4.820;2023-06-22T14:00:34;27.80;63.40
14142;DHT22;7151;52.246;4.820;2023-06-22T14:02:59;27.80;63.30
14142;DHT22;7151;52.246;4.820;2023-06-22T14:05:27;27.80;63.20
14142;DHT22;7151;52.246;4.820;2023-06-22T14:07:53;27.80;63.00
14142;DHT22;7151;52.246;4.820;2023-06-22T14:10:18;27.80;62.90
14142;DHT22;7151;52.246;4.820;2023-06-22T14:12:44;27.80;62.90
14142;DHT22;7151;52.246;4.820;2023-06-22T14:15:10;27.70;62.80
14142;DHT22;7151;52.246;4.820;2023-06-22T14:17:35;27.70;62.80
14142;DHT22;7151;52.246;4.820;2023-06-22T14:20:01;27.70;62.70
14142;DHT22;7151;52.246;4.820;2023-06-22T14:22:26;27.70;62.80
14142;DHT22;7151;52.246;4.820;2023-06-22T14:24:54;27.70;62.80
14142;DHT22;7151;52.246;4.820;2023-06-22T14:27:22;27.70;62.80
14142;DHT22;7151;52.246;4.820;2023-06-22T14:29:48;27.70;62.80
14142;DHT22;7151;52.246;4.820;2023-06-22T14:32:14;27.70;62.60
14142;DHT22;7151;52.246;4.820;2023-06-22T14:34:39;27.70;62.70
14142;DHT22;7151;52.246;4.820;2023-06-22T14:37:08;27.70;62.70
14142;DHT22;7151;52.246;4.820;2023-06-22T14:39:35;27.70;62.70
14142;DHT22;7151;52.246;4.820;2023-06-22T14:42:01;27.70;62.60
14142;DHT22;7151;52.246;4.820;2023-06-22T14:44:28;27.70;62.50
14142;DHT22;7151;52.246;4.820;2023-06-22T14:46:57;27.70;62.50
14142;DHT22;7151;52.246;4.820;2023-06-22T14:49:23;27.70;62.50
14142;DHT22;7151;52.246;4.820;2023-06-22T14:51:48;27.70;62.30
14142;DHT22;7151;52.246;4.820;2023-06-22T14:54:14;27.70;62.80
14142;DHT22;7151;52.246;4.820;2023-06-22T14:56:40;27.80;62.50
14142;DHT22;7151;52.246;4.820;2023-06-22T14:59:06;27.80;62.40
14142;DHT22;7151;52.246;4.820;2023-06-22T15:01:31;27.70;62.20
14142;DHT22;7151;52.246;4.820;2023-06-22T15:03:57;27.70;62.30
14142;DHT22;7151;52.246;4.820;2023-06-22T15:06:23;27.70;62.50
14142;DHT22;7151;52.246;4.820;2023-06-22T15:08:48;27.70;62.70
14142;DHT22;7151;52.246;4.820;2023-06-22T15:11:14;27.70;62.80
14142;DHT22;7151;52.246;4.820;2023-06-22T15:13:40;27.70;62.80
14142;DHT22;7151;52.246;4.820;2023-06-22T15:16:05;27.70;62.80
14142;DHT22;7151;52.246;4.820;2023-06-22T15:18:31;27.70;62.90
14142;DHT22;7151;52.246;4.820;2023-06-22T15:20:59;27.70;62.90
14142;DHT22;7151;52.246;4.820;2023-06-22T15:23:27;27.70;63.10
14142;DHT22;7151;52.246;4.820;2023-06-22T15:25:54;27.70;63.20
14142;DHT22;7151;52.246;4.820;2023-06-22T15:28:20;27.70;63.40
14142;DHT22;7151;52.246;4.820;2023-06-22T15:30:49;27.70;63.80
14142;DHT22;7151;52.246;4.820;2023-06-22T15:33:15;27.60;64.00
14142;DHT22;7151;52.246;4.820;2023-06-22T15:35:41;27.60;64.20
14142;DHT22;7151;52.246;4.820;2023-06-22T15:38:06;27.60;64.50
14142;DHT22;7151;52.246;4.820;2023-06-22T15:40:32;27.60;64.60
14142;DHT22;7151;52.246;4.820;2023-06-22T15:42:58;27.60;64.80
14142;DHT22;7151;52.246;4.820;2023-06-22T15:45:24;27.60;65.00
14142;DHT22;7151;52.246;4.820;2023-06-22T15:47:49;27.50;65.00
14142;DHT22;7151;52.246;4.820;2023-06-22T15:50:15;27.50;65.20
14142;DHT22;7151;52.246;4.820;2023-06-22T15:52:41;27.50;65.30